createdAt,value
2019-03-09T00:02:16.034Z,7.87
2019-03-09T00:04:45.990Z,10.37
2019-03-09T00:07:15.030Z,10.43
2019-03-09T00:09:44.435Z,9.63
2019-03-09T00:12:13.491Z,8.80
2019-03-09T00:14:42.619Z,7.47
2019-03-09T00:17:11.726Z,6.63
2019-03-09T00:19:40.736Z,6.63
2019-03-09T00:22:09.761Z,9.67
2019-03-09T00:24:49.419Z,13.03
2019-03-09T00:27:37.530Z,8.50
2019-03-09T00:30:30.449Z,14.20
2019-03-09T00:32:59.497Z,8.50
2019-03-09T00:35:28.528Z,11.40
2019-03-09T00:37:57.567Z,11.70
2019-03-09T00:40:26.606Z,6.33
2019-03-09T00:42:55.663Z,6.00
2019-03-09T00:45:24.746Z,8.17
2019-03-09T00:47:53.805Z,8.87
2019-03-09T00:50:22.881Z,9.40
2019-03-09T00:52:51.936Z,8.17
2019-03-09T00:55:20.973Z,5.87
2019-03-09T00:57:50.024Z,6.53
2019-03-09T01:00:19.754Z,6.43
2019-03-09T01:02:50.954Z,3.90
2019-03-09T01:05:19.562Z,5.47
2019-03-09T01:07:48.581Z,3.40
2019-03-09T01:10:17.798Z,4.63
2019-03-09T01:12:46.813Z,3.83
2019-03-09T01:15:15.852Z,3.40
2019-03-09T01:17:45.102Z,4.03
2019-03-09T01:20:15.361Z,2.40
2019-03-09T01:22:44.403Z,2.83
2019-03-09T01:25:13.436Z,3.50
2019-03-09T01:27:42.460Z,2.53
2019-03-09T01:30:13.781Z,5.27
2019-03-09T01:32:42.862Z,3.97
2019-03-09T01:35:31.089Z,4.53
2019-03-09T01:38:00.144Z,4.03
2019-03-09T01:40:29.226Z,4.30
2019-03-09T01:42:58.275Z,4.23
2019-03-09T01:45:28.352Z,3.27
2019-03-09T01:47:57.394Z,3.23
2019-03-09T01:50:26.443Z,5.27
2019-03-09T01:52:55.572Z,2.20
2019-03-09T01:55:24.596Z,2.93
2019-03-09T01:57:53.644Z,3.70
2019-03-09T02:00:22.721Z,2.53
2019-03-09T02:02:51.700Z,2.53
2019-03-09T02:05:20.710Z,5.33
2019-03-09T02:07:49.719Z,4.33
2019-03-09T02:10:18.761Z,7.33
2019-03-09T02:12:47.883Z,6.53
2019-03-09T02:15:17.214Z,5.33
2019-03-09T02:18:05.364Z,9.03
2019-03-09T02:20:34.426Z,8.67
2019-03-09T02:23:03.493Z,9.47
2019-03-09T02:25:32.541Z,8.03
2019-03-09T02:28:01.555Z,10.40
2019-03-09T02:30:30.672Z,8.37
2019-03-09T02:32:59.711Z,15.20
2019-03-09T02:35:28.767Z,10.23
2019-03-09T02:38:00.156Z,10.10
2019-03-09T02:40:29.315Z,15.47
2019-03-09T02:42:58.310Z,12.80
2019-03-09T02:45:27.914Z,13.27
2019-03-09T02:47:56.982Z,15.47
2019-03-09T02:50:25.976Z,17.53
2019-03-09T02:52:55.020Z,17.70
2019-03-09T02:55:24.067Z,22.03
2019-03-09T02:57:53.133Z,17.30
2019-03-09T03:00:22.252Z,12.80
2019-03-09T03:02:54.170Z,15.67
2019-03-09T03:05:23.296Z,15.70
2019-03-09T03:07:52.311Z,20.27
2019-03-09T03:10:21.377Z,23.80
2019-03-09T03:12:50.371Z,11.27
2019-03-09T03:15:44.644Z,20.03
2019-03-09T03:18:13.702Z,17.03
2019-03-09T03:20:42.742Z,15.93
2019-03-09T03:23:11.796Z,19.13
2019-03-09T03:25:40.937Z,12.40
2019-03-09T03:28:09.982Z,14.00
2019-03-09T03:30:39.116Z,19.30
2019-03-09T03:33:08.277Z,12.20
2019-03-09T03:35:37.257Z,14.43
2019-03-09T03:38:06.271Z,13.10
2019-03-09T03:40:35.391Z,17.17
2019-03-09T03:43:04.459Z,17.37
2019-03-09T03:45:33.456Z,11.50
2019-03-09T03:48:02.472Z,19.10
2019-03-09T03:50:31.490Z,15.57
2019-03-09T03:53:00.493Z,10.07
2019-03-09T03:55:29.512Z,13.10
2019-03-09T03:57:58.544Z,15.47
2019-03-09T04:00:27.643Z,7.83
2019-03-09T04:02:56.751Z,14.20
2019-03-09T04:05:25.802Z,12.77
2019-03-09T04:07:54.825Z,11.13
2019-03-09T04:10:23.823Z,15.63
2019-03-09T04:13:12.062Z,13.77
2019-03-09T04:15:41.167Z,15.93
2019-03-09T04:18:10.238Z,13.63
2019-03-09T04:20:39.272Z,16.47
2019-03-09T04:23:08.846Z,14.00
2019-03-09T04:25:37.817Z,12.17
2019-03-09T04:28:06.835Z,10.63
2019-03-09T04:30:35.888Z,15.73
2019-03-09T04:33:04.986Z,23.03
2019-03-09T04:35:34.045Z,12.50
2019-03-09T04:38:03.125Z,14.53
2019-03-09T04:40:32.134Z,9.77
2019-03-09T04:43:01.213Z,19.70
2019-03-09T04:45:30.234Z,12.33
2019-03-09T04:47:59.331Z,15.50
2019-03-09T04:50:28.397Z,11.97
2019-03-09T04:52:57.425Z,8.33
2019-03-09T04:55:26.432Z,10.57
2019-03-09T04:57:55.459Z,11.00
2019-03-09T05:00:24.484Z,13.87
2019-03-09T05:02:53.510Z,11.67
2019-03-09T05:05:22.590Z,9.10
2019-03-09T05:08:04.415Z,13.83
2019-03-09T05:10:40.446Z,10.20
2019-03-09T05:13:22.265Z,10.70
2019-03-09T05:15:51.335Z,9.77
2019-03-09T05:18:20.312Z,8.70
2019-03-09T05:20:49.355Z,11.37
2019-03-09T05:23:19.841Z,15.60
2019-03-09T05:25:48.933Z,9.87
2019-03-09T05:28:17.967Z,9.47
2019-03-09T05:30:47.069Z,15.57
2019-03-09T05:33:16.143Z,13.57
2019-03-09T05:35:45.186Z,15.80
2019-03-09T05:38:14.334Z,13.73
2019-03-09T05:40:43.345Z,10.73
2019-03-09T05:43:12.366Z,13.03
2019-03-09T05:45:41.364Z,15.77
2019-03-09T05:48:10.460Z,17.67
2019-03-09T05:50:39.543Z,14.87
2019-03-09T05:53:18.109Z,7.70
2019-03-09T05:55:47.118Z,14.87
2019-03-09T05:58:16.159Z,8.70
2019-03-09T06:00:45.280Z,10.33
2019-03-09T06:03:14.374Z,11.40
2019-03-09T06:06:03.959Z,10.60
2019-03-09T06:08:33.112Z,12.50
2019-03-09T06:11:02.201Z,10.10
2019-03-09T06:13:31.300Z,6.67
2019-03-09T06:16:00.327Z,10.83
2019-03-09T06:18:29.348Z,18.97
2019-03-09T06:20:58.345Z,7.73
2019-03-09T06:23:27.428Z,11.80
2019-03-09T06:25:56.430Z,14.10
2019-03-09T06:28:25.446Z,8.03
2019-03-09T06:30:54.506Z,10.77
2019-03-09T06:33:25.105Z,11.73
2019-03-09T06:35:57.762Z,12.13
2019-03-09T06:38:51.242Z,10.93
2019-03-09T06:41:33.474Z,14.70
2019-03-09T06:44:02.493Z,8.40
2019-03-09T06:46:31.499Z,10.90
2019-03-09T06:49:00.461Z,13.70
2019-03-09T06:51:29.410Z,14.20
2019-03-09T06:54:10.263Z,13.60
2019-03-09T06:56:39.349Z,12.97
2019-03-09T06:59:08.388Z,13.27
2019-03-09T07:01:37.406Z,11.53
2019-03-09T07:04:06.507Z,14.27
2019-03-09T07:06:35.590Z,22.47
2019-03-09T07:09:05.613Z,10.67
2019-03-09T07:11:34.731Z,13.73
2019-03-09T07:14:46.555Z,13.17
2019-03-09T07:17:15.573Z,14.07
2019-03-09T07:19:44.585Z,19.87
2019-03-09T07:22:13.636Z,10.93
2019-03-09T07:24:42.653Z,14.93
2019-03-09T07:27:11.753Z,17.30
2019-03-09T07:29:40.830Z,26.03
2019-03-09T07:32:09.854Z,16.87
2019-03-09T07:34:38.818Z,15.87
2019-03-09T07:37:07.788Z,19.43
2019-03-09T07:39:36.775Z,18.60
2019-03-09T07:42:05.770Z,21.40
2019-03-09T07:44:34.803Z,16.03
2019-03-09T07:47:03.847Z,17.43
2019-03-09T07:49:32.811Z,16.00
2019-03-09T07:52:01.865Z,16.27
2019-03-09T07:54:30.943Z,15.43
2019-03-09T07:57:00.001Z,15.53
2019-03-09T07:59:29.077Z,21.27
2019-03-09T08:01:58.071Z,10.97
2019-03-09T08:04:27.072Z,15.77
2019-03-09T08:06:56.102Z,17.97
2019-03-09T08:09:44.279Z,20.13
2019-03-09T08:12:13.337Z,14.07
2019-03-09T08:14:42.385Z,15.90
2019-03-09T08:17:11.473Z,17.90
2019-03-09T08:19:40.566Z,13.17
2019-03-09T08:22:09.606Z,15.27
2019-03-09T08:24:38.619Z,14.67
2019-03-09T08:27:07.683Z,17.63
2019-03-09T08:29:36.806Z,16.83
2019-03-09T08:32:05.932Z,22.40
2019-03-09T08:34:34.998Z,18.03
2019-03-09T08:37:04.094Z,19.07
2019-03-09T08:39:33.122Z,12.00
2019-03-09T08:42:02.126Z,17.87
2019-03-09T08:44:31.139Z,15.10
2019-03-09T08:47:00.163Z,20.43
2019-03-09T08:49:29.178Z,10.07
2019-03-09T08:51:58.316Z,11.53
2019-03-09T08:54:27.324Z,13.43
2019-03-09T08:56:56.369Z,15.03
2019-03-09T08:59:25.411Z,12.03
2019-03-09T09:01:54.493Z,13.73
2019-03-09T09:04:23.572Z,16.17
2019-03-09T09:06:52.615Z,19.00
2019-03-09T09:09:21.740Z,24.87
2019-03-09T09:11:50.761Z,19.77
2019-03-09T09:14:19.751Z,11.80
2019-03-09T09:16:48.797Z,21.33
2019-03-09T09:19:17.815Z,12.33
2019-03-09T09:21:46.874Z,16.10
2019-03-09T09:24:15.912Z,17.83
2019-03-09T09:26:44.927Z,15.53
2019-03-09T09:29:13.886Z,14.00
2019-03-09T09:31:42.948Z,14.70
2019-03-09T09:34:12.001Z,15.43
2019-03-09T09:36:41.019Z,15.47
2019-03-09T09:39:10.121Z,15.77
2019-03-09T09:41:39.162Z,16.17
2019-03-09T09:44:08.169Z,14.47
2019-03-09T09:46:37.203Z,16.30
2019-03-09T09:49:06.238Z,17.80
2019-03-09T09:51:35.305Z,10.50
2019-03-09T09:54:04.390Z,17.90
2019-03-09T09:56:33.459Z,16.40
2019-03-09T09:59:02.510Z,14.77
2019-03-09T10:01:31.582Z,17.63
2019-03-09T10:04:00.627Z,13.53
2019-03-09T10:06:29.587Z,17.77
2019-03-09T10:08:58.675Z,13.30
2019-03-09T10:11:27.692Z,10.50
2019-03-09T10:13:56.719Z,14.10
2019-03-09T10:16:25.721Z,18.00
2019-03-09T10:18:54.754Z,16.97
2019-03-09T10:21:23.752Z,17.07
2019-03-09T10:23:52.783Z,18.80
2019-03-09T10:26:24.055Z,18.17
2019-03-09T10:28:52.448Z,20.47
2019-03-09T10:31:21.454Z,16.70
2019-03-09T10:33:50.470Z,19.37
2019-03-09T10:36:19.483Z,16.67
2019-03-09T10:38:48.549Z,14.63
2019-03-09T10:41:17.663Z,16.17
2019-03-09T10:43:46.713Z,14.07
2019-03-09T10:46:15.719Z,27.47
2019-03-09T10:48:44.713Z,15.87
2019-03-09T10:51:13.711Z,18.93
2019-03-09T10:53:42.689Z,13.80
2019-03-09T10:56:11.691Z,21.07
2019-03-09T10:58:40.718Z,15.70
2019-03-09T11:01:09.729Z,14.97
2019-03-09T11:03:38.766Z,20.10
2019-03-09T11:06:07.812Z,25.07
2019-03-09T11:08:36.901Z,20.90
2019-03-09T11:11:05.964Z,21.10
2019-03-09T11:13:35.021Z,14.37
2019-03-09T11:16:04.047Z,16.17
2019-03-09T11:18:33.061Z,22.27
2019-03-09T11:21:02.086Z,22.73
2019-03-09T11:23:31.145Z,23.27
2019-03-09T11:26:00.193Z,22.63
2019-03-09T11:28:29.314Z,26.67
2019-03-09T11:30:58.374Z,26.47
2019-03-09T11:33:27.338Z,27.27
2019-03-09T11:35:56.353Z,26.33
2019-03-09T11:38:25.364Z,20.27
2019-03-09T11:40:58.558Z,26.73
2019-03-09T11:43:25.112Z,19.63
2019-03-09T11:45:54.155Z,17.93
2019-03-09T11:48:23.184Z,20.10
2019-03-09T11:50:52.135Z,19.20
2019-03-09T11:53:21.153Z,20.77
2019-03-09T11:55:50.136Z,19.73
2019-03-09T11:58:19.126Z,28.27
2019-03-09T12:00:48.629Z,30.07
2019-03-09T12:03:17.689Z,29.57
2019-03-09T12:05:46.753Z,18.67
2019-03-09T12:08:15.837Z,30.67
2019-03-09T12:10:44.899Z,35.30
2019-03-09T12:13:13.973Z,28.33
2019-03-09T12:15:43.074Z,28.57
2019-03-09T12:18:12.215Z,31.43
2019-03-09T12:20:41.354Z,27.37
2019-03-09T12:23:18.852Z,22.43
2019-03-09T12:25:47.941Z,22.87
2019-03-09T12:28:16.991Z,29.90
2019-03-09T12:30:46.004Z,27.80
2019-03-09T12:33:15.133Z,29.43
2019-03-09T12:35:44.338Z,32.17
2019-03-09T12:38:13.371Z,27.23
2019-03-09T12:40:42.343Z,25.50
2019-03-09T12:43:11.454Z,26.30
2019-03-09T12:45:40.536Z,24.57
2019-03-09T12:48:09.570Z,30.17
2019-03-09T12:50:38.643Z,21.47
2019-03-09T12:53:07.707Z,24.03
2019-03-09T12:55:36.699Z,28.53
2019-03-09T12:58:05.729Z,25.93
2019-03-09T13:00:34.700Z,28.23
2019-03-09T13:03:03.691Z,23.80
2019-03-09T13:05:32.721Z,29.93
2019-03-09T13:08:01.793Z,27.23
2019-03-09T13:10:30.834Z,30.73
2019-03-09T13:12:59.811Z,28.87
2019-03-09T13:15:28.775Z,27.03
2019-03-09T13:17:57.826Z,27.27
2019-03-09T13:20:26.828Z,23.40
2019-03-09T13:22:58.743Z,35.27
2019-03-09T13:25:27.873Z,26.97
2019-03-09T13:27:57.020Z,37.10
2019-03-09T13:30:26.109Z,32.90
2019-03-09T13:32:55.171Z,31.33
2019-03-09T13:35:24.159Z,32.90
2019-03-09T13:37:53.204Z,38.37
2019-03-09T13:40:22.237Z,31.20
2019-03-09T13:42:51.242Z,31.03
2019-03-09T13:45:20.264Z,28.63
2019-03-09T13:47:49.310Z,31.07
2019-03-09T13:50:18.357Z,27.57
2019-03-09T13:52:47.382Z,20.50
2019-03-09T13:55:16.469Z,23.20
2019-03-09T13:57:45.515Z,15.13
2019-03-09T14:00:15.093Z,16.17
2019-03-09T14:02:44.159Z,13.63
2019-03-09T14:05:13.092Z,10.03
2019-03-09T14:07:42.123Z,6.37
2019-03-09T14:10:11.585Z,7.03
2019-03-09T14:12:40.668Z,4.47
2019-03-09T14:15:11.559Z,5.03
2019-03-09T14:17:40.593Z,6.50
2019-03-09T14:20:10.003Z,5.80
2019-03-09T14:22:39.024Z,11.47
2019-03-09T14:25:08.565Z,5.50
2019-03-09T14:27:37.592Z,8.87
2019-03-09T14:30:06.827Z,10.70
2019-03-09T14:32:35.966Z,11.67
2019-03-09T14:35:05.619Z,6.77
2019-03-09T14:37:34.637Z,10.33
2019-03-09T14:40:03.785Z,13.10
2019-03-09T14:42:32.963Z,12.83
2019-03-09T14:45:02.006Z,10.00
2019-03-09T14:47:30.984Z,14.40
2019-03-09T14:50:00.031Z,8.53
2019-03-09T14:52:28.971Z,14.43
2019-03-09T14:54:58.013Z,18.80
2019-03-09T14:57:27.076Z,12.37
2019-03-09T14:59:56.104Z,11.57
2019-03-09T15:02:25.090Z,13.47
2019-03-09T15:04:54.146Z,12.80
2019-03-09T15:07:23.236Z,10.80
2019-03-09T15:09:52.700Z,11.50
2019-03-09T15:12:21.750Z,9.93
2019-03-09T15:14:50.819Z,15.97
2019-03-09T15:17:19.892Z,11.47
2019-03-09T15:19:48.989Z,8.87
2019-03-09T15:22:18.070Z,15.07
2019-03-09T15:24:47.070Z,9.83
2019-03-09T15:27:16.188Z,13.67
2019-03-09T15:29:45.254Z,12.23
2019-03-09T15:32:14.241Z,9.93
2019-03-09T15:34:43.298Z,13.77
2019-03-09T15:37:12.433Z,12.00
2019-03-09T15:39:41.489Z,12.03
2019-03-09T15:42:10.567Z,7.50
2019-03-09T15:44:39.618Z,10.73
2019-03-09T15:47:08.644Z,10.03
2019-03-09T15:49:37.658Z,5.87
2019-03-09T15:52:06.672Z,13.23
2019-03-09T15:54:35.767Z,12.83
2019-03-09T15:57:04.778Z,12.67
2019-03-09T15:59:49.006Z,15.23
2019-03-09T16:02:19.301Z,5.83
2019-03-09T16:04:48.368Z,8.30
2019-03-09T16:07:17.429Z,11.47
2019-03-09T16:09:46.425Z,8.67
2019-03-09T16:12:17.523Z,9.97
2019-03-09T16:14:46.570Z,13.53
2019-03-09T16:17:15.567Z,15.20
2019-03-09T16:19:44.609Z,12.47
2019-03-09T16:22:13.662Z,11.63
2019-03-09T16:24:42.704Z,9.00
2019-03-09T16:27:11.772Z,7.37
2019-03-09T16:29:40.818Z,10.43
2019-03-09T16:32:09.931Z,11.83
2019-03-09T16:34:38.877Z,9.47
2019-03-09T16:37:07.877Z,8.07
2019-03-09T16:39:36.887Z,7.33
2019-03-09T16:42:05.886Z,11.37
2019-03-09T16:44:34.911Z,9.10
2019-03-09T16:47:04.041Z,9.83
2019-03-09T16:49:33.105Z,8.83
2019-03-09T16:52:02.177Z,13.80
2019-03-09T16:54:31.330Z,12.27
2019-03-09T16:57:00.392Z,10.63
2019-03-09T16:59:29.396Z,11.67
2019-03-09T17:01:59.009Z,13.33
2019-03-09T17:04:28.031Z,10.90
2019-03-09T17:06:57.030Z,11.30
2019-03-09T17:09:26.001Z,10.63
2019-03-09T17:11:55.016Z,11.03
2019-03-09T17:14:24.038Z,9.67
2019-03-09T17:16:53.021Z,10.33
2019-03-09T17:19:22.101Z,13.77
2019-03-09T17:21:51.090Z,15.13
2019-03-09T17:24:20.130Z,10.10
2019-03-09T17:26:49.214Z,11.40
2019-03-09T17:29:18.228Z,14.33
2019-03-09T17:31:47.258Z,12.57
2019-03-09T17:34:16.323Z,11.87
2019-03-09T17:36:45.473Z,15.70
2019-03-09T17:39:14.566Z,17.27
2019-03-09T17:41:43.616Z,12.83
2019-03-09T17:44:12.724Z,11.33
2019-03-09T17:46:41.789Z,10.80
2019-03-09T17:49:10.876Z,19.03
2019-03-09T17:51:39.953Z,12.77
2019-03-09T17:54:09.018Z,11.77
2019-03-09T17:56:57.261Z,15.90
2019-03-09T17:59:26.274Z,16.50
2019-03-09T18:01:55.371Z,14.87
2019-03-09T18:04:24.410Z,12.80
2019-03-09T18:06:53.497Z,16.40
2019-03-09T18:09:22.497Z,15.90
2019-03-09T18:11:51.497Z,13.23
2019-03-09T18:14:20.596Z,13.80
2019-03-09T18:16:52.953Z,12.37
2019-03-09T18:19:20.313Z,16.87
2019-03-09T18:21:49.362Z,12.60
2019-03-09T18:24:18.443Z,13.33
2019-03-09T18:26:47.481Z,11.73
2019-03-09T18:29:16.533Z,16.90
2019-03-09T18:31:45.669Z,14.80
2019-03-09T18:34:33.886Z,12.00
2019-03-09T18:37:02.981Z,19.27
2019-03-09T18:39:32.049Z,13.10
2019-03-09T18:42:01.123Z,14.30
2019-03-09T18:44:30.245Z,12.70
2019-03-09T18:46:59.315Z,10.67
2019-03-09T18:49:28.433Z,14.20
2019-03-09T18:51:57.433Z,12.70
2019-03-09T18:54:26.514Z,19.83
2019-03-09T18:56:57.970Z,16.77
2019-03-09T18:59:27.028Z,11.00
2019-03-09T19:01:56.119Z,15.47
2019-03-09T19:04:25.106Z,16.97
2019-03-09T19:06:54.169Z,18.33
2019-03-09T19:09:23.215Z,22.57
2019-03-09T19:11:52.244Z,17.80
2019-03-09T19:14:21.256Z,20.87
2019-03-09T19:16:50.291Z,16.57
2019-03-09T19:19:19.374Z,18.60
2019-03-09T19:21:48.345Z,20.40
2019-03-09T19:24:17.453Z,17.43
2019-03-09T19:26:46.550Z,14.83
2019-03-09T19:29:15.643Z,18.13
2019-03-09T19:31:44.670Z,17.83
2019-03-09T19:34:13.759Z,16.37
2019-03-09T19:36:42.746Z,18.77
2019-03-09T19:39:11.791Z,13.67
2019-03-09T19:41:40.797Z,10.50
2019-03-09T19:44:09.914Z,14.10
2019-03-09T19:46:39.025Z,15.50
2019-03-09T19:49:08.085Z,15.83
2019-03-09T19:51:37.217Z,10.53
2019-03-09T19:54:25.419Z,9.73
2019-03-09T19:56:54.534Z,12.93
2019-03-09T19:59:23.595Z,8.23
2019-03-09T20:01:58.533Z,11.23
2019-03-09T20:04:29.036Z,13.50
2019-03-09T20:07:00.535Z,11.77
2019-03-09T20:09:32.000Z,14.90
2019-03-09T20:12:01.051Z,14.27
2019-03-09T20:14:30.530Z,13.13
2019-03-09T20:16:59.611Z,13.90
2019-03-09T20:19:28.678Z,10.73
2019-03-09T20:21:57.642Z,11.87
2019-03-09T20:24:45.838Z,14.53
2019-03-09T20:27:14.816Z,10.90
2019-03-09T20:29:43.869Z,15.97
2019-03-09T20:32:12.958Z,19.60
2019-03-09T20:34:41.961Z,18.33
2019-03-09T20:37:11.136Z,17.70
2019-03-09T20:39:40.313Z,15.93
2019-03-09T20:42:09.437Z,15.33
2019-03-09T20:44:38.486Z,14.17
2019-03-09T20:47:08.310Z,15.60
2019-03-09T20:49:37.568Z,12.87
2019-03-09T20:52:06.657Z,16.87
2019-03-09T20:54:35.748Z,21.07
2019-03-09T20:57:04.784Z,18.17
2019-03-09T20:59:33.801Z,10.43
2019-03-09T21:02:03.000Z,13.03
2019-03-09T21:04:32.085Z,17.07
2019-03-09T21:07:01.270Z,16.87
2019-03-09T21:09:30.290Z,12.37
2019-03-09T21:11:59.409Z,16.87
2019-03-09T21:14:28.441Z,14.47
2019-03-09T21:16:59.664Z,18.00
2019-03-09T21:19:28.278Z,11.30
2019-03-09T21:21:57.294Z,15.00
2019-03-09T21:24:26.349Z,20.07
2019-03-09T21:26:55.420Z,27.27
2019-03-09T21:29:24.512Z,10.07
2019-03-09T21:31:53.529Z,19.93
2019-03-09T21:34:22.584Z,17.57
2019-03-09T21:36:51.738Z,15.67
2019-03-09T21:39:20.899Z,18.53
2019-03-09T21:41:50.010Z,20.57
2019-03-09T21:44:21.408Z,18.70
2019-03-09T21:46:50.440Z,14.17
2019-03-09T21:49:19.455Z,25.67
2019-03-09T21:51:48.438Z,16.20
2019-03-09T21:54:36.614Z,10.57
2019-03-09T21:57:05.718Z,18.77
2019-03-09T21:59:34.725Z,17.17
2019-03-09T22:02:03.707Z,20.67
2019-03-09T22:04:33.971Z,18.60
2019-03-09T22:07:03.010Z,20.93
2019-03-09T22:09:32.078Z,19.90
2019-03-09T22:12:01.066Z,14.20
2019-03-09T22:14:30.059Z,15.50
2019-03-09T22:16:59.090Z,13.80
2019-03-09T22:19:28.124Z,11.13
2019-03-09T22:21:57.108Z,20.23
2019-03-09T22:24:26.254Z,23.07
2019-03-09T22:26:55.371Z,12.27
2019-03-09T22:29:24.458Z,17.53
2019-03-09T22:31:53.504Z,21.93
2019-03-09T22:34:23.610Z,10.77
2019-03-09T22:36:52.726Z,17.13
2019-03-09T22:39:21.875Z,17.27
2019-03-09T22:41:50.884Z,14.23
2019-03-09T22:44:31.202Z,13.63
2019-03-09T22:47:10.756Z,21.07
2019-03-09T22:49:30.947Z,12.57
2019-03-09T22:51:59.943Z,17.63
2019-03-09T22:54:29.091Z,17.27
2019-03-09T22:56:58.207Z,17.00
2019-03-09T22:59:27.271Z,15.30
2019-03-09T23:01:56.336Z,18.63
2019-03-09T23:04:25.514Z,12.90
2019-03-09T23:06:54.626Z,20.90
2019-03-09T23:09:23.755Z,18.23
2019-03-09T23:11:52.829Z,17.67
2019-03-09T23:14:21.781Z,15.67
2019-03-09T23:16:50.904Z,18.33
2019-03-09T23:19:19.973Z,18.60
2019-03-09T23:21:49.099Z,19.13
2019-03-09T23:24:18.159Z,15.43
2019-03-09T23:26:47.172Z,15.00
2019-03-09T23:29:16.176Z,16.73
2019-03-09T23:31:45.168Z,17.80
2019-03-09T23:34:14.167Z,18.23
2019-03-09T23:36:43.399Z,13.97
2019-03-09T23:39:12.415Z,15.57
2019-03-09T23:41:41.553Z,13.77
2019-03-09T23:44:10.630Z,15.77
2019-03-09T23:46:39.671Z,18.70
2019-03-09T23:49:08.714Z,14.00
2019-03-09T23:51:37.746Z,20.87
2019-03-09T23:54:06.803Z,15.77
2019-03-09T23:56:35.842Z,15.40
2019-03-09T23:59:04.842Z,23.87
